Time,TemperatureF,DewpointF,PressureIn,WindDirection,WindDirectionDegrees,WindSpeedMPH,WindSpeedGustMPH,Humidity,HourlyPrecipIn,Conditions,Clouds,dailyrainin,SoftwareType,DateUTC
2013-10-17 00:00:00,43.3,41.1,30.09,NNW,348,0.0,0.0,92,0.00,,---,0.00,VWS V14.01,2013-10-17 05:00:00,
2013-10-17 00:02:00,43.3,41.1,30.09,NNW,348,0.0,0.0,92,0.00,,---,0.00,VWS V14.01,2013-10-17 05:02:00,
2013-10-17 00:05:00,43.2,41.0,30.09,NNW,348,0.0,0.0,92,0.00,,---,0.00,VWS V14.01,2013-10-17 05:05:00,
2013-10-17 00:08:00,43.2,41.0,30.09,NNW,348,0.0,0.0,92,0.00,,---,0.00,VWS V14.01,2013-10-17 05:08:00,
2013-10-17 00:11:00,43.1,40.9,30.08,NNW,348,0.0,0.0,92,0.00,,---,0.00,VWS V14.01,2013-10-17 05:11:00,
2013-10-17 00:14:00,43.0,40.8,30.08,NNW,348,0.0,0.0,92,0.00,,---,0.00,VWS V14.01,2013-10-17 05:14:00,
2013-10-17 00:17:00,42.9,40.7,30.08,NNW,348,0.0,0.0,92,0.00,,---,0.00,VWS V14.01,2013-10-17 05:17:00,
2013-10-17 00:20:00,42.8,40.6,30.08,NNW,348,0.0,0.0,92,0.00,,---,0.00,VWS V14.01,2013-10-17 05:20:00,
2013-10-17 00:23:00,42.7,40.8,30.08,NNW,348,0.0,0.0,93,0.00,,---,0.00,VWS V14.01,2013-10-17 05:23:00,
2013-10-17 00:26:00,42.7,40.8,30.08,NNW,348,0.0,0.0,93,0.00,,---,0.00,VWS V14.01,2013-10-17 05:26:00,
2013-10-17 00:29:00,42.4,40.2,30.08,NNW,348,0.0,0.0,92,0.00,,---,0.00,VWS V14.01,2013-10-17 05:29:00,
2013-10-17 00:30:00,42.4,40.2,30.08,NNW,348,0.0,0.0,92,0.00,,---,0.00,VWS V14.01,2013-10-17 05:30:00,
2013-10-17 00:32:00,42.3,40.4,30.08,NNW,348,0.0,0.0,93,0.00,,---,0.00,VWS V14.01,2013-10-17 05:32:00,
2013-10-17 00:36:00,42.2,40.3,30.08,NNW,348,0.0,0.0,93,0.00,,---,0.00,VWS V14.01,2013-10-17 05:36:00,
2013-10-17 00:39:00,42.1,40.2,30.08,NNW,348,0.0,0.0,93,0.00,,---,0.00,VWS V14.01,2013-10-17 05:39:00,
2013-10-17 00:42:00,42.0,40.1,30.08,NNW,348,0.0,0.0,93,0.00,,---,0.00,VWS V14.01,2013-10-17 05:42:00,
2013-10-17 00:45:00,42.0,40.1,30.08,NNW,348,0.0,0.0,93,0.00,,---,0.00,VWS V14.01,2013-10-17 05:45:00,
2013-10-17 00:48:00,42.0,40.1,30.08,NNW,348,0.0,0.0,93,0.00,,---,0.00,VWS V14.01,2013-10-17 05:48:00,
2013-10-17 00:51:00,41.9,40.0,30.07,NNW,348,0.0,0.0,93,0.00,,---,0.00,VWS V14.01,2013-10-17 05:51:00,
2013-10-17 00:54:00,41.8,39.9,30.07,NNW,348,0.0,0.0,93,0.00,,---,0.00,VWS V14.01,2013-10-17 05:54:00,
2013-10-17 00:57:00,41.7,39.8,30.08,NNW,348,0.0,0.0,93,0.00,,---,0.00,VWS V14.01,2013-10-17 05:57:00,
2013-10-17 01:00:00,41.6,39.7,30.08,NNW,348,0.0,0.0,93,0.00,,---,0.00,VWS V14.01,2013-10-17 06:00:00,
2013-10-17 01:03:00,41.4,39.5,30.08,NNW,348,0.0,0.0,93,0.00,,---,0.00,VWS V14.01,2013-10-17 06:03:00,
2013-10-17 01:06:00,41.5,39.9,30.08,NNW,348,0.0,0.0,94,0.00,,---,0.00,VWS V14.01,2013-10-17 06:06:00,
2013-10-17 01:09:00,41.5,39.9,30.08,NNW,348,0.0,0.0,94,0.00,,---,0.00,VWS V14.01,2013-10-17 06:09:00,
2013-10-17 01:12:00,41.4,39.8,30.07,NNW,348,0.0,0.0,94,0.00,,---,0.00,VWS V14.01,2013-10-17 06:12:00,
2013-10-17 01:15:00,41.3,39.4,30.07,NNW,348,0.0,0.0,93,0.00,,---,0.00,VWS V14.01,2013-10-17 06:15:00,
2013-10-17 01:18:00,41.3,39.7,30.07,NNW,348,0.0,0.0,94,0.00,,---,0.00,VWS V14.01,2013-10-17 06:18:00,
2013-10-17 01:21:00,41.1,39.5,30.07,NNW,348,0.0,0.0,94,0.00,,---,0.00,VWS V14.01,2013-10-17 06:21:00,
2013-10-17 01:24:00,41.2,39.6,30.07,NNW,348,0.0,0.0,94,0.00,,---,0.00,VWS V14.01,2013-10-17 06:24:00,
2013-10-17 01:27:00,41.2,39.6,30.08,NNW,348,0.0,0.0,94,0.00,,---,0.00,VWS V14.01,2013-10-17 06:27:00,
2013-10-17 01:30:00,41.1,39.5,30.07,NNW,348,0.0,0.0,94,0.00,,---,0.00,VWS V14.01,2013-10-17 06:30:00,
2013-10-17 01:33:00,40.9,39.3,30.08,NNW,348,0.0,1.0,94,0.00,,---,0.00,VWS V14.01,2013-10-17 06:33:00,
2013-10-17 01:36:00,40.7,39.1,30.07,NNW,348,0.0,1.0,94,0.00,,---,0.00,VWS V14.01,2013-10-17 06:36:00,
2013-10-17 01:39:00,40.6,39.0,30.07,NNW,348,0.0,1.0,94,0.00,,---,0.00,VWS V14.01,2013-10-17 06:39:00,
2013-10-17 01:42:00,40.6,39.0,30.07,NNW,348,0.0,1.0,94,0.00,,---,0.00,VWS V14.01,2013-10-17 06:42:00,
2013-10-17 01:45:00,40.5,38.9,30.07,NNW,348,0.0,1.0,94,0.00,,---,0.00,VWS V14.01,2013-10-17 06:45:00,
2013-10-17 01:48:00,40.5,38.9,30.07,NNW,348,0.0,1.0,94,0.00,,---,0.00,VWS V14.01,2013-10-17 06:48:00,
2013-10-17 01:51:00,40.5,38.9,30.07,NNW,348,0.0,1.0,94,0.00,,---,0.00,VWS V14.01,2013-10-17 06:51:00,
2013-10-17 01:54:00,40.3,38.7,30.07,NNW,348,0.0,2.0,94,0.00,,---,0.00,VWS V14.01,2013-10-17 06:54:00,
2013-10-17 01:57:00,40.3,38.7,30.07,NNW,348,0.0,2.0,94,0.00,,---,0.00,VWS V14.01,2013-10-17 06:57:00,
2013-10-17 02:00:00,40.2,38.6,30.07,NNW,348,0.0,2.0,94,0.00,,---,0.00,VWS V14.01,2013-10-17 07:00:00,
2013-10-17 02:03:00,40.2,38.6,30.07,NNW,348,0.0,1.0,94,0.00,,---,0.00,VWS V14.01,2013-10-17 07:03:00,
2013-10-17 02:06:00,40.3,38.7,30.07,NNW,348,0.0,1.0,94,0.00,,---,0.00,VWS V14.01,2013-10-17 07:06:00,
2013-10-17 02:09:00,40.4,39.1,30.07,NNW,348,0.0,1.0,95,0.00,,---,0.00,VWS V14.01,2013-10-17 07:09:00,
2013-10-17 02:15:00,40.3,38.7,30.07,NNW,348,0.0,1.0,94,0.00,,---,0.00,VWS V14.01,2013-10-17 07:15:00,
2013-10-17 02:18:00,40.2,38.6,30.07,NNW,348,0.0,1.0,94,0.00,,---,0.00,VWS V14.01,2013-10-17 07:18:00,
2013-10-17 02:21:00,40.2,38.6,30.07,NNW,348,0.0,1.0,94,0.00,,---,0.00,VWS V14.01,2013-10-17 07:21:00,
2013-10-17 02:24:00,40.1,38.5,30.07,NNW,348,0.0,1.0,94,0.00,,---,0.00,VWS V14.01,2013-10-17 07:24:00,
2013-10-17 02:27:00,40.0,38.7,30.07,NNW,348,1.0,2.0,95,0.00,,---,0.00,VWS V14.01,2013-10-17 07:27:00,
2013-10-17 02:30:00,39.9,38.3,30.07,NNW,348,0.0,2.0,94,0.00,,---,0.00,VWS V14.01,2013-10-17 07:30:00,
2013-10-17 02:33:00,39.9,38.3,30.07,NNW,348,0.0,1.0,94,0.00,,---,0.00,VWS V14.01,2013-10-17 07:33:00,
2013-10-17 02:39:00,39.7,38.1,30.07,NNW,348,0.0,1.0,94,0.00,,---,0.00,VWS V14.01,2013-10-17 07:39:00,
2013-10-17 02:42:00,39.7,38.4,30.07,NNW,348,0.0,1.0,95,0.00,,---,0.00,VWS V14.01,2013-10-17 07:42:00,
2013-10-17 02:46:00,39.8,38.5,30.06,NNW,348,0.0,1.0,95,0.00,,---,0.00,VWS V14.01,2013-10-17 07:46:00,
2013-10-17 02:52:00,39.7,38.4,30.06,NNW,348,0.0,2.0,95,0.00,,---,0.00,VWS V14.01,2013-10-17 07:52:00,
2013-10-17 02:58:00,39.7,38.4,30.07,NNW,348,0.0,2.0,95,0.00,,---,0.00,VWS V14.01,2013-10-17 07:58:00,
2013-10-17 03:01:00,39.8,38.5,30.06,NNW,348,0.0,1.0,95,0.00,,---,0.00,VWS V14.01,2013-10-17 08:01:00,
2013-10-17 03:04:00,39.8,38.5,30.06,NNW,348,0.0,1.0,95,0.00,,---,0.00,VWS V14.01,2013-10-17 08:04:00,
2013-10-17 03:07:00,39.7,38.4,30.07,NNW,348,0.0,1.0,95,0.00,,---,0.00,VWS V14.01,2013-10-17 08:07:00,
2013-10-17 03:10:00,39.7,38.4,30.06,NNW,348,0.0,1.0,95,0.00,,---,0.00,VWS V14.01,2013-10-17 08:10:00,
2013-10-17 03:11:00,40.4,39.1,30.07,NNW,348,0.0,1.0,95,0.00,,---,0.00,VWS V14.01,2013-10-17 08:11:00,
2013-10-17 03:16:00,39.7,38.4,30.06,NNW,348,0.0,1.0,95,0.00,,---,0.00,VWS V14.01,2013-10-17 08:16:00,
2013-10-17 03:22:00,39.7,38.4,30.06,NNW,348,0.0,1.0,95,0.00,,---,0.00,VWS V14.01,2013-10-17 08:22:00,
2013-10-17 03:28:00,39.7,38.4,30.06,NNW,348,0.0,1.0,95,0.00,,---,0.00,VWS V14.01,2013-10-17 08:28:00,
2013-10-17 03:29:00,39.9,38.3,30.07,NNW,348,1.0,1.0,94,0.00,,---,0.00,VWS V14.01,2013-10-17 08:29:00,
2013-10-17 03:31:00,39.7,38.4,30.06,NNW,348,0.0,0.0,95,0.00,,---,0.00,VWS V14.01,2013-10-17 08:31:00,
2013-10-17 03:35:00,39.8,38.2,30.07,NNW,348,0.0,1.0,94,0.00,,---,0.00,VWS V14.01,2013-10-17 08:35:00,
2013-10-17 03:40:00,39.4,38.1,30.07,NNW,348,0.0,0.0,95,0.00,,---,0.00,VWS V14.01,2013-10-17 08:40:00,
2013-10-17 03:47:00,39.8,38.5,30.06,NNW,348,1.0,2.0,95,0.00,,---,0.00,VWS V14.01,2013-10-17 08:47:00,
2013-10-17 03:53:00,39.7,38.4,30.07,NNW,348,0.0,2.0,95,0.00,,---,0.00,VWS V14.01,2013-10-17 08:53:00,
2013-10-17 03:58:00,39.8,38.5,30.07,NNW,348,0.0,2.0,95,0.00,,---,0.00,VWS V14.01,2013-10-17 08:58:00,
2013-10-17 04:01:00,39.2,37.9,30.07,NNW,348,0.0,0.0,95,0.00,,---,0.00,VWS V14.01,2013-10-17 09:01:00,
2013-10-17 04:04:00,39.2,37.9,30.07,NNW,348,0.0,0.0,95,0.00,,---,0.00,VWS V14.01,2013-10-17 09:04:00,
2013-10-17 04:07:00,39.3,38.0,30.07,NNW,348,0.0,0.0,95,0.00,,---,0.00,VWS V14.01,2013-10-17 09:07:00,
2013-10-17 04:10:00,39.3,38.0,30.07,NNW,348,0.0,0.0,95,0.00,,---,0.00,VWS V14.01,2013-10-17 09:10:00,
2013-10-17 04:12:00,39.7,38.4,30.06,NNW,348,0.0,1.0,95,0.00,,---,0.00,VWS V14.01,2013-10-17 09:12:00,
2013-10-17 04:18:00,39.7,38.4,30.06,NNW,348,0.0,1.0,95,0.00,,---,0.00,VWS V14.01,2013-10-17 09:18:00,
2013-10-17 04:24:00,39.8,38.5,30.06,NNW,348,0.0,1.0,95,0.00,,---,0.00,VWS V14.01,2013-10-17 09:24:00,
2013-10-17 04:33:00,39.6,38.3,30.06,NNW,348,0.0,0.0,95,0.00,,---,0.00,VWS V14.01,2013-10-17 09:33:00,
2013-10-17 04:42:00,39.3,38.0,30.07,NNW,348,0.0,0.0,95,0.00,,---,0.00,VWS V14.01,2013-10-17 09:42:00,
2013-10-17 04:45:00,39.2,37.9,30.06,NNW,348,0.0,0.0,95,0.00,,---,0.00,VWS V14.01,2013-10-17 09:45:00,
2013-10-17 04:48:00,39.2,37.9,30.06,NNW,348,0.0,0.0,95,0.00,,---,0.00,VWS V14.01,2013-10-17 09:48:00,
2013-10-17 04:51:00,39.2,37.9,30.06,NNW,348,0.0,0.0,95,0.00,,---,0.00,VWS V14.01,2013-10-17 09:51:00,
2013-10-17 04:53:00,39.3,38.3,30.07,NNW,348,0.0,0.0,96,0.00,,---,0.00,VWS V14.01,2013-10-17 09:53:00,
2013-10-17 04:56:00,39.4,38.4,30.07,NNW,348,0.0,0.0,96,0.00,,---,0.00,VWS V14.01,2013-10-17 09:56:00,
2013-10-17 04:57:00,39.2,37.9,30.07,NNW,348,0.0,0.0,95,0.00,,---,0.00,VWS V14.01,2013-10-17 09:57:00,
2013-10-17 04:58:00,39.2,37.9,30.07,NNW,348,0.0,0.0,95,0.00,,---,0.00,VWS V14.01,2013-10-17 09:58:00,
2013-10-17 05:00:00,39.5,38.5,30.07,NNW,348,0.0,0.0,96,0.00,,---,0.00,VWS V14.01,2013-10-17 10:00:00,
2013-10-17 05:05:00,39.6,38.6,30.07,NNW,348,0.0,0.0,96,0.00,,---,0.00,VWS V14.01,2013-10-17 10:05:00,
2013-10-17 05:12:00,39.3,38.0,30.07,NNW,348,0.0,0.0,95,0.00,,---,0.00,VWS V14.01,2013-10-17 10:12:00,
2013-10-17 05:15:00,39.3,38.0,30.07,NNW,348,0.0,0.0,95,0.00,,---,0.00,VWS V14.01,2013-10-17 10:15:00,
2013-10-17 05:17:00,39.4,38.1,30.07,NNW,348,0.0,0.0,95,0.00,,---,0.00,VWS V14.01,2013-10-17 10:17:00,
2013-10-17 05:18:00,39.4,38.4,30.07,NNW,348,0.0,0.0,96,0.00,,---,0.00,VWS V14.01,2013-10-17 10:18:00,
2013-10-17 05:21:00,39.4,38.4,30.07,NNW,348,0.0,0.0,96,0.00,,---,0.00,VWS V14.01,2013-10-17 10:21:00,
2013-10-17 05:23:00,39.2,37.9,30.07,NNW,348,0.0,0.0,95,0.00,,---,0.00,VWS V14.01,2013-10-17 10:23:00,
2013-10-17 05:24:00,39.5,38.5,30.07,NNW,348,0.0,0.0,96,0.00,,---,0.00,VWS V14.01,2013-10-17 10:24:00,
2013-10-17 05:28:00,39.5,38.2,30.07,NNW,348,0.0,0.0,95,0.00,,---,0.00,VWS V14.01,2013-10-17 10:28:00,
2013-10-17 05:30:00,39.4,38.1,30.06,NNW,348,0.0,0.0,95,0.00,,---,0.00,VWS V14.01,2013-10-17 10:30:00,
2013-10-17 05:33:00,39.3,38.0,30.07,NNW,348,0.0,0.0,95,0.00,,---,0.00,VWS V14.01,2013-10-17 10:33:00,
2013-10-17 05:36:00,39.1,37.8,30.07,NNW,348,0.0,0.0,95,0.00,,---,0.00,VWS V14.01,2013-10-17 10:36:00,
2013-10-17 05:39:00,39.1,37.8,30.07,NNW,348,0.0,0.0,95,0.00,,---,0.00,VWS V14.01,2013-10-17 10:39:00,
2013-10-17 05:42:00,39.0,37.7,30.07,NNW,348,0.0,0.0,95,0.00,,---,0.00,VWS V14.01,2013-10-17 10:42:00,
2013-10-17 05:45:00,39.0,37.7,30.07,NNW,348,0.0,0.0,95,0.00,,---,0.00,VWS V14.01,2013-10-17 10:45:00,
2013-10-17 05:48:00,39.1,37.8,30.07,NNW,348,0.0,0.0,95,0.00,,---,0.00,VWS V14.01,2013-10-17 10:48:00,
2013-10-17 05:57:00,39.5,38.5,30.07,NNW,348,0.0,0.0,96,0.00,,---,0.00,VWS V14.01,2013-10-17 10:57:00,
2013-10-17 06:06:00,39.6,38.6,30.07,NNW,348,0.0,0.0,96,0.00,,---,0.00,VWS V14.01,2013-10-17 11:06:00,
2013-10-17 06:12:00,39.4,38.4,30.07,NNW,348,0.0,0.0,96,0.00,,---,0.00,VWS V14.01,2013-10-17 11:12:00,
2013-10-17 06:19:00,39.3,38.0,30.07,NNW,348,0.0,0.0,95,0.00,,---,0.00,VWS V14.01,2013-10-17 11:19:00,
2013-10-17 06:23:00,38.0,36.7,30.08,NNW,348,0.0,0.0,95,0.00,,---,0.00,VWS V14.01,2013-10-17 11:23:00,
2013-10-17 06:25:00,39.1,37.8,30.07,NNW,348,0.0,0.0,95,0.00,,---,0.00,VWS V14.01,2013-10-17 11:25:00,
2013-10-17 06:28:00,39.0,37.7,30.07,NNW,348,0.0,0.0,95,0.00,,---,0.00,VWS V14.01,2013-10-17 11:28:00,
2013-10-17 06:31:00,39.0,37.7,30.07,NNW,348,0.0,0.0,95,0.00,,---,0.00,VWS V14.01,2013-10-17 11:31:00,
2013-10-17 06:34:00,38.9,37.6,30.07,NNW,348,0.0,0.0,95,0.00,,---,0.00,VWS V14.01,2013-10-17 11:34:00,
2013-10-17 06:35:00,37.7,36.4,30.08,NNW,348,0.0,0.0,95,0.00,,---,0.00,VWS V14.01,2013-10-17 11:35:00,
2013-10-17 06:37:00,38.8,37.5,30.07,NNW,348,0.0,0.0,95,0.00,,---,0.00,VWS V14.01,2013-10-17 11:37:00,
2013-10-17 06:40:00,38.9,37.6,30.07,NNW,348,0.0,0.0,95,0.00,,---,0.00,VWS V14.01,2013-10-17 11:40:00,
2013-10-17 06:43:00,38.8,37.8,30.07,NNW,348,0.0,0.0,96,0.00,,---,0.00,VWS V14.01,2013-10-17 11:43:00,
2013-10-17 06:46:00,38.8,37.8,30.07,NNW,348,0.0,0.0,96,0.00,,---,0.00,VWS V14.01,2013-10-17 11:46:00,
2013-10-17 06:49:00,38.8,37.8,30.07,NNW,348,0.0,0.0,96,0.00,,---,0.00,VWS V14.01,2013-10-17 11:49:00,
2013-10-17 06:55:00,38.8,37.8,30.07,NNW,348,0.0,0.0,96,0.00,,---,0.00,VWS V14.01,2013-10-17 11:55:00,
2013-10-17 07:01:00,38.7,37.4,30.08,NNW,348,0.0,0.0,95,0.00,,---,0.00,VWS V14.01,2013-10-17 12:01:00,
2013-10-17 07:04:00,38.7,37.7,30.08,NNW,348,0.0,0.0,96,0.00,,---,0.00,VWS V14.01,2013-10-17 12:04:00,
2013-10-17 07:07:00,38.6,37.6,30.08,NNW,348,0.0,0.0,96,0.00,,---,0.00,VWS V14.01,2013-10-17 12:07:00,
2013-10-17 07:13:00,38.4,37.1,30.08,NNW,348,0.0,0.0,95,0.00,,---,0.00,VWS V14.01,2013-10-17 12:13:00,
2013-10-17 07:19:00,38.2,36.9,30.08,NNW,348,0.0,0.0,95,0.00,,---,0.00,VWS V14.01,2013-10-17 12:19:00,
2013-10-17 07:25:00,37.9,36.6,30.08,NNW,348,0.0,0.0,95,0.00,,---,0.00,VWS V14.01,2013-10-17 12:25:00,
2013-10-17 07:27:00,40.3,39.2,30.09,NNW,348,0.0,2.0,96,0.00,,---,0.00,VWS V14.01,2013-10-17 12:27:00,
2013-10-17 07:28:00,37.8,36.5,30.08,NNW,348,0.0,0.0,95,0.00,,---,0.00,VWS V14.01,2013-10-17 12:28:00,
2013-10-17 07:37:00,37.7,36.7,30.08,NNW,348,0.0,0.0,96,0.00,,---,0.00,VWS V14.01,2013-10-17 12:37:00,
2013-10-17 07:40:00,37.7,36.7,30.08,NNW,348,0.0,0.0,96,0.00,,---,0.00,VWS V14.01,2013-10-17 12:40:00,
2013-10-17 07:46:00,37.7,36.7,30.08,NNW,348,0.0,0.0,96,0.00,,---,0.00,VWS V14.01,2013-10-17 12:46:00,
2013-10-17 07:48:00,43.1,42.3,30.10,NNW,348,0.0,2.0,97,0.00,,---,0.00,VWS V14.01,2013-10-17 12:48:00,
2013-10-17 07:49:00,37.7,36.4,30.08,NNW,348,0.0,0.0,95,0.00,,---,0.00,VWS V14.01,2013-10-17 12:49:00,
2013-10-17 07:52:00,37.6,36.6,30.08,NNW,348,0.0,0.0,96,0.00,,---,0.00,VWS V14.01,2013-10-17 12:52:00,
2013-10-17 07:55:00,37.6,36.3,30.08,NNW,348,0.0,0.0,95,0.00,,---,0.00,VWS V14.01,2013-10-17 12:55:00,
2013-10-17 07:58:00,37.6,36.3,30.08,NNW,348,0.0,0.0,95,0.00,,---,0.00,VWS V14.01,2013-10-17 12:58:00,
2013-10-17 08:04:00,38.4,37.4,30.08,NNW,348,0.0,0.0,96,0.00,,---,0.00,VWS V14.01,2013-10-17 13:04:00,
2013-10-17 08:07:00,38.5,37.5,30.08,NNW,348,0.0,0.0,96,0.00,,---,0.00,VWS V14.01,2013-10-17 13:07:00,
2013-10-17 08:10:00,38.7,37.7,30.08,NNW,348,0.0,0.0,96,0.00,,---,0.00,VWS V14.01,2013-10-17 13:10:00,
2013-10-17 08:13:00,38.9,37.9,30.09,NNW,348,1.0,2.0,96,0.00,,---,0.00,VWS V14.01,2013-10-17 13:13:00,
2013-10-17 08:19:00,39.5,38.5,30.09,NNW,348,0.0,2.0,96,0.00,,---,0.00,VWS V14.01,2013-10-17 13:19:00,
2013-10-17 08:22:00,39.8,38.8,30.09,NNW,348,0.0,2.0,96,0.00,,---,0.00,VWS V14.01,2013-10-17 13:22:00,
2013-10-17 08:28:00,40.6,39.5,30.09,NNW,348,0.0,2.0,96,0.00,,---,0.00,VWS V14.01,2013-10-17 13:28:00,
2013-10-17 08:32:00,41.0,40.2,30.10,NNW,348,0.0,0.0,97,0.00,,---,0.00,VWS V14.01,2013-10-17 13:32:00,
2013-10-17 08:35:00,41.5,40.5,30.10,NNW,348,0.0,0.0,96,0.00,,---,0.00,VWS V14.01,2013-10-17 13:35:00,
2013-10-17 08:38:00,41.9,41.1,30.10,NNW,348,0.0,2.0,97,0.00,,---,0.00,VWS V14.01,2013-10-17 13:38:00,
2013-10-17 08:39:00,51.2,47.8,30.11,NNW,348,0.0,0.0,88,0.00,,---,0.00,VWS V14.01,2013-10-17 13:39:00,
2013-10-17 08:41:00,42.4,41.6,30.10,NNW,348,0.0,2.0,97,0.00,,---,0.00,VWS V14.01,2013-10-17 13:41:00,
2013-10-17 08:50:00,43.4,42.6,30.10,NNW,348,0.0,2.0,97,0.00,,---,0.00,VWS V14.01,2013-10-17 13:50:00,
2013-10-17 08:56:00,44.3,43.5,30.10,NNW,348,0.0,2.0,97,0.00,,---,0.00,VWS V14.01,2013-10-17 13:56:00,
2013-10-17 08:58:00,44.8,44.0,30.11,NNW,348,0.0,2.0,97,0.00,,---,0.00,VWS V14.01,2013-10-17 13:58:00,
2013-10-17 08:59:00,44.9,44.1,30.11,NNW,348,0.0,0.0,97,0.00,,---,0.00,VWS V14.01,2013-10-17 13:59:00,
2013-10-17 09:02:00,45.3,44.5,30.11,NNW,348,0.0,0.0,97,0.00,,---,0.00,VWS V14.01,2013-10-17 14:02:00,
2013-10-17 09:05:00,45.9,45.1,30.11,NNW,348,0.0,0.0,97,0.00,,---,0.00,VWS V14.01,2013-10-17 14:05:00,
2013-10-17 09:08:00,46.5,45.7,30.11,NNW,348,0.0,0.0,97,0.00,,---,0.00,VWS V14.01,2013-10-17 14:08:00,
2013-10-17 09:11:00,47.0,46.2,30.11,NNW,348,0.0,0.0,97,0.00,,---,0.00,VWS V14.01,2013-10-17 14:11:00,
2013-10-17 09:12:00,56.0,47.1,30.12,West,261,0.0,4.0,72,0.00,,---,0.00,VWS V14.01,2013-10-17 14:12:00,
2013-10-17 09:14:00,47.5,46.7,30.11,NNW,348,0.0,0.0,97,0.00,,---,0.00,VWS V14.01,2013-10-17 14:14:00,
2013-10-17 09:17:00,47.9,47.1,30.11,NNW,348,0.0,0.0,97,0.00,,---,0.00,VWS V14.01,2013-10-17 14:17:00,
2013-10-17 09:20:00,48.4,47.6,30.11,NNW,348,0.0,0.0,97,0.00,,---,0.00,VWS V14.01,2013-10-17 14:20:00,
2013-10-17 09:22:00,57.3,46.8,30.12,West,281,0.0,4.0,68,0.00,,---,0.00,VWS V14.01,2013-10-17 14:22:00,
2013-10-17 09:23:00,48.9,47.8,30.11,NNW,348,0.0,0.0,96,0.00,,---,0.00,VWS V14.01,2013-10-17 14:23:00,
2013-10-17 09:28:00,49.8,48.2,30.11,NNW,348,0.0,0.0,94,0.00,,---,0.00,VWS V14.01,2013-10-17 14:28:00,
2013-10-17 09:29:00,49.9,47.7,30.11,NNW,348,0.0,0.0,92,0.00,,---,0.00,VWS V14.01,2013-10-17 14:29:00,
2013-10-17 09:34:00,58.9,47.2,30.12,WSW,240,0.0,0.0,65,0.00,,---,0.00,VWS V14.01,2013-10-17 14:34:00,
2013-10-17 09:35:00,50.5,47.4,30.11,NNW,348,0.0,0.0,89,0.00,,---,0.00,VWS V14.01,2013-10-17 14:35:00,
2013-10-17 09:37:00,59.3,48.0,30.12,WSW,240,0.0,0.0,66,0.00,,---,0.00,VWS V14.01,2013-10-17 14:37:00,
2013-10-17 09:41:00,51.8,48.1,30.11,NNW,338,0.0,0.0,87,0.00,,---,0.00,VWS V14.01,2013-10-17 14:41:00,
2013-10-17 09:44:00,52.2,47.5,30.11,NNW,335,0.0,0.0,84,0.00,,---,0.00,VWS V14.01,2013-10-17 14:44:00,
2013-10-17 09:47:00,52.6,46.9,30.11,SW,231,3.0,3.0,81,0.00,,---,0.00,VWS V14.01,2013-10-17 14:47:00,
2013-10-17 09:50:00,53.1,47.1,30.12,SW,219,0.0,3.0,80,0.00,,---,0.00,VWS V14.01,2013-10-17 14:50:00,
2013-10-17 09:52:00,60.6,46.2,30.12,SW,230,0.0,4.0,59,0.00,,---,0.00,VWS V14.01,2013-10-17 14:52:00,
2013-10-17 09:56:00,54.0,47.0,30.12,WSW,257,1.0,4.0,77,0.00,,---,0.00,VWS V14.01,2013-10-17 14:56:00,
2013-10-17 09:58:00,54.3,47.2,30.12,WSW,254,2.0,4.0,77,0.00,,---,0.00,VWS V14.01,2013-10-17 14:58:00,
2013-10-17 09:59:00,54.4,47.3,30.12,SW,232,3.0,4.0,77,0.00,,---,0.00,VWS V14.01,2013-10-17 14:59:00,
2013-10-17 10:05:00,55.3,47.5,30.12,West,266,0.0,4.0,75,0.00,,---,0.00,VWS V14.01,2013-10-17 15:05:00,
2013-10-17 10:08:00,55.7,47.2,30.12,West,263,0.0,4.0,73,0.00,,---,0.00,VWS V14.01,2013-10-17 15:08:00,
2013-10-17 10:13:00,62.3,46.4,30.11,SW,223,4.0,7.0,56,0.00,,---,0.00,VWS V14.01,2013-10-17 15:13:00,
2013-10-17 10:14:00,56.4,47.1,30.12,West,261,0.0,4.0,71,0.00,,---,0.00,VWS V14.01,2013-10-17 15:14:00,
2013-10-17 10:17:00,56.9,46.8,30.12,NW,304,0.0,4.0,69,0.00,,---,0.00,VWS V14.01,2013-10-17 15:17:00,
2013-10-17 10:23:00,57.6,47.1,30.12,West,280,0.0,4.0,68,0.00,,---,0.00,VWS V14.01,2013-10-17 15:23:00,
2013-10-17 10:26:00,58.0,47.9,30.11,West,281,0.0,4.0,69,0.00,,---,0.00,VWS V14.01,2013-10-17 15:26:00,
2013-10-17 10:29:00,58.7,47.4,30.12,WSW,240,0.0,0.0,66,0.00,,---,0.00,VWS V14.01,2013-10-17 15:29:00,
2013-10-17 10:38:00,59.6,47.0,30.12,SW,217,0.0,4.0,63,0.00,,---,0.00,VWS V14.01,2013-10-17 15:38:00,
2013-10-17 10:42:00,59.7,47.1,30.12,SW,218,0.0,4.0,63,0.00,,---,0.00,VWS V14.01,2013-10-17 15:42:00,
2013-10-17 10:45:00,60.0,47.4,30.12,WSW,246,0.0,4.0,63,0.00,,---,0.00,VWS V14.01,2013-10-17 15:45:00,
2013-10-17 10:48:00,60.3,46.8,30.12,WSW,252,1.0,4.0,61,0.00,,---,0.00,VWS V14.01,2013-10-17 15:48:00,
2013-10-17 10:54:00,60.8,46.4,30.12,WSW,245,3.0,5.0,59,0.00,,---,0.00,VWS V14.01,2013-10-17 15:54:00,
2013-10-17 10:57:00,60.9,46.0,30.12,WSW,257,1.0,5.0,58,0.00,,---,0.00,VWS V14.01,2013-10-17 15:57:00,
2013-10-17 10:58:00,61.1,47.6,30.12,WNW,292,2.0,5.0,61,0.00,,---,0.00,VWS V14.01,2013-10-17 15:58:00,
2013-10-17 11:00:00,61.2,46.8,30.11,WSW,252,2.0,5.0,59,0.00,,---,0.00,VWS V14.01,2013-10-17 16:00:00,
2013-10-17 11:03:00,61.4,45.6,30.11,West,267,3.0,6.0,56,0.00,,---,0.00,VWS V14.01,2013-10-17 16:03:00,
2013-10-17 11:06:00,61.6,46.7,30.11,WSW,247,0.0,7.0,58,0.00,,---,0.00,VWS V14.01,2013-10-17 16:06:00,
2013-10-17 11:09:00,62.0,46.1,30.11,SW,216,0.0,7.0,56,0.00,,---,0.00,VWS V14.01,2013-10-17 16:09:00,
2013-10-17 11:15:00,62.5,46.6,30.11,SW,223,2.0,7.0,56,0.00,,---,0.00,VWS V14.01,2013-10-17 16:15:00,
2013-10-17 11:21:00,63.1,46.2,30.10,SW,232,0.0,7.0,54,0.00,,---,0.00,VWS V14.01,2013-10-17 16:21:00,
2013-10-17 11:24:00,63.3,45.4,30.10,SSW,207,0.0,7.0,52,0.00,,---,0.00,VWS V14.01,2013-10-17 16:24:00,
2013-10-17 11:27:00,63.5,46.6,30.10,SSW,205,0.0,7.0,54,0.00,,---,0.00,VWS V14.01,2013-10-17 16:27:00,
2013-10-17 11:28:00,63.6,46.2,30.11,SSW,209,4.0,7.0,53,0.00,,---,0.00,VWS V14.01,2013-10-17 16:28:00,
2013-10-17 11:30:00,63.6,46.2,30.11,SW,219,0.0,4.0,53,0.00,,---,0.00,VWS V14.01,2013-10-17 16:30:00,
2013-10-17 11:33:00,63.8,46.4,30.11,SW,219,0.0,4.0,53,0.00,,---,0.00,VWS V14.01,2013-10-17 16:33:00,
2013-10-17 11:36:00,64.0,46.5,30.11,SW,219,0.0,4.0,53,0.00,,---,0.00,VWS V14.01,2013-10-17 16:36:00,
2013-10-17 11:39:00,64.3,45.8,30.11,SW,221,0.0,4.0,51,0.00,,---,0.00,VWS V14.01,2013-10-17 16:39:00,
2013-10-17 11:42:00,64.7,46.7,30.11,South,172,2.0,4.0,52,0.00,,---,0.00,VWS V14.01,2013-10-17 16:42:00,
2013-10-17 11:48:00,65.3,45.1,30.11,SSE,155,0.0,4.0,48,0.00,,---,0.00,VWS V14.01,2013-10-17 16:48:00,
2013-10-17 11:51:00,65.6,47.0,30.10,SSE,163,0.0,4.0,51,0.00,,---,0.00,VWS V14.01,2013-10-17 16:51:00,
2013-10-17 11:54:00,65.8,47.2,30.10,South,190,0.0,4.0,51,0.00,,---,0.00,VWS V14.01,2013-10-17 16:54:00,
2013-10-17 11:57:00,66.2,47.0,30.10,SSE,157,4.0,7.0,50,0.00,,---,0.00,VWS V14.01,2013-10-17 16:57:00,
2013-10-17 11:58:00,66.3,45.5,30.10,South,173,1.0,7.0,47,0.00,,---,0.00,VWS V14.01,2013-10-17 16:58:00,
2013-10-17 12:03:00,66.3,47.1,30.10,South,184,0.0,4.0,50,0.00,,---,0.00,VWS V14.01,2013-10-17 17:03:00,
2013-10-17 12:06:00,66.3,46.6,30.10,SSW,192,0.0,4.0,49,0.00,,---,0.00,VWS V14.01,2013-10-17 17:06:00,
2013-10-17 12:09:00,66.6,46.9,30.10,SSW,205,0.0,4.0,49,0.00,,---,0.00,VWS V14.01,2013-10-17 17:09:00,
2013-10-17 12:12:00,66.8,46.5,30.10,SSW,198,0.0,5.0,48,0.00,,---,0.00,VWS V14.01,2013-10-17 17:12:00,
2013-10-17 12:15:00,66.8,47.0,30.09,SSW,210,3.0,5.0,49,0.00,,---,0.00,VWS V14.01,2013-10-17 17:15:00,
2013-10-17 12:21:00,67.1,45.7,30.09,SSW,211,3.0,6.0,46,0.00,,---,0.00,VWS V14.01,2013-10-17 17:21:00,
2013-10-17 12:24:00,66.8,46.5,30.09,South,188,3.0,6.0,48,0.00,,---,0.00,VWS V14.01,2013-10-17 17:24:00,
2013-10-17 12:27:00,66.8,46.5,30.09,SSW,198,1.0,6.0,48,0.00,,---,0.00,VWS V14.01,2013-10-17 17:27:00,
2013-10-17 12:28:00,66.8,45.9,30.09,SSW,198,0.0,6.0,47,0.00,,---,0.00,VWS V14.01,2013-10-17 17:28:00,
2013-10-17 12:33:00,67.0,46.7,30.09,SE,130,0.0,1.0,48,0.00,,---,0.00,VWS V14.01,2013-10-17 17:33:00,
2013-10-17 12:36:00,67.2,46.3,30.08,SE,144,0.0,2.0,47,0.00,,---,0.00,VWS V14.01,2013-10-17 17:36:00,
2013-10-17 12:39:00,67.4,47.0,30.08,SW,215,0.0,6.0,48,0.00,,---,0.00,VWS V14.01,2013-10-17 17:39:00,
2013-10-17 12:45:00,67.7,46.8,30.08,NW,304,0.0,6.0,47,0.00,,---,0.00,VWS V14.01,2013-10-17 17:45:00,
2013-10-17 12:49:00,67.8,47.4,30.08,West,267,0.0,6.0,48,0.00,,---,0.00,VWS V14.01,2013-10-17 17:49:00,
2013-10-17 12:52:00,67.9,46.4,30.07,NW,318,0.0,6.0,46,0.00,,---,0.00,VWS V14.01,2013-10-17 17:52:00,
2013-10-17 12:58:00,68.1,47.1,30.07,West,278,0.0,6.0,47,0.00,,---,0.00,VWS V14.01,2013-10-17 17:58:00,
2013-10-17 13:01:00,68.1,46.6,30.07,West,270,0.0,0.0,46,0.00,,---,0.00,VWS V14.01,2013-10-17 18:01:00,
2013-10-17 13:04:00,68.2,47.2,30.07,West,280,0.0,1.0,47,0.00,,---,0.00,VWS V14.01,2013-10-17 18:04:00,
2013-10-17 13:10:00,68.5,46.9,30.07,SE,132,5.0,6.0,46,0.00,,---,0.00,VWS V14.01,2013-10-17 18:10:00,
2013-10-17 13:13:00,68.7,47.1,30.07,ESE,115,2.0,6.0,46,0.00,,---,0.00,VWS V14.01,2013-10-17 18:13:00,
2013-10-17 13:19:00,68.8,46.6,30.06,South,190,1.0,6.0,45,0.00,,---,0.00,VWS V14.01,2013-10-17 18:19:00,
2013-10-17 13:22:00,68.9,46.1,30.06,SSE,153,0.0,6.0,44,0.00,,---,0.00,VWS V14.01,2013-10-17 18:22:00,
2013-10-17 13:25:00,69.0,45.6,30.06,SSW,196,0.0,6.0,43,0.00,,---,0.00,VWS V14.01,2013-10-17 18:25:00,
2013-10-17 13:28:00,69.1,46.9,30.06,WSW,249,2.0,6.0,45,0.00,,---,0.00,VWS V14.01,2013-10-17 18:28:00,
2013-10-17 13:31:00,69.2,47.6,30.05,WSW,253,0.0,1.0,46,0.00,,---,0.00,VWS V14.01,2013-10-17 18:31:00,
2013-10-17 13:34:00,69.5,47.2,30.05,WSW,244,0.0,2.0,45,0.00,,---,0.00,VWS V14.01,2013-10-17 18:34:00,
2013-10-17 13:36:00,71.4,48.4,30.01,SE,133,0.0,7.0,44,0.00,,---,0.00,VWS V14.01,2013-10-17 18:36:00,
2013-10-17 13:37:00,69.6,47.3,30.05,West,263,5.0,5.0,45,0.00,,---,0.00,VWS V14.01,2013-10-17 18:37:00,
2013-10-17 13:40:00,69.9,47.6,30.05,SSW,196,1.0,5.0,45,0.00,,---,0.00,VWS V14.01,2013-10-17 18:40:00,
2013-10-17 13:43:00,69.9,47.0,30.05,ESE,123,0.0,5.0,44,0.00,,---,0.00,VWS V14.01,2013-10-17 18:43:00,
2013-10-17 13:45:00,71.9,47.6,30.00,SSE,167,0.0,7.0,42,0.00,,---,0.00,VWS V14.01,2013-10-17 18:45:00,
2013-10-17 13:46:00,70.0,47.7,30.04,ESE,117,2.0,5.0,45,0.00,,---,0.00,VWS V14.01,2013-10-17 18:46:00,
2013-10-17 13:51:00,72.4,48.0,30.00,SE,133,0.0,7.0,42,0.00,,---,0.00,VWS V14.01,2013-10-17 18:51:00,
2013-10-17 13:52:00,69.9,48.2,30.04,ESE,123,1.0,5.0,46,0.00,,---,0.00,VWS V14.01,2013-10-17 18:52:00,
2013-10-17 13:55:00,70.0,48.3,30.03,NE,44,0.0,5.0,46,0.00,,---,0.00,VWS V14.01,2013-10-17 18:55:00,
2013-10-17 13:58:00,70.4,47.5,30.03,South,188,4.0,6.0,44,0.00,,---,0.00,VWS V14.01,2013-10-17 18:58:00,
2013-10-17 14:01:00,70.6,47.0,30.03,SSE,154,1.0,5.0,43,0.00,,---,0.00,VWS V14.01,2013-10-17 19:01:00,
2013-10-17 14:04:00,70.8,47.2,30.03,SE,132,0.0,5.0,43,0.00,,---,0.00,VWS V14.01,2013-10-17 19:04:00,
2013-10-17 14:07:00,70.6,46.4,30.02,SE,134,0.0,5.0,42,0.00,,---,0.00,VWS V14.01,2013-10-17 19:07:00,
2013-10-17 14:09:00,72.9,47.8,30.00,SSW,198,1.0,9.0,41,0.00,,---,0.00,VWS V14.01,2013-10-17 19:09:00,
2013-10-17 14:13:00,70.7,47.1,30.02,SW,232,0.0,7.0,43,0.00,,---,0.00,VWS V14.01,2013-10-17 19:13:00,
2013-10-17 14:16:00,71.0,48.0,30.02,SW,225,5.0,7.0,44,0.00,,---,0.00,VWS V14.01,2013-10-17 19:16:00,
2013-10-17 14:19:00,71.3,47.0,30.02,SSW,211,3.0,7.0,42,0.00,,---,0.00,VWS V14.01,2013-10-17 19:19:00,
2013-10-17 14:22:00,71.3,47.0,30.02,South,181,1.0,7.0,42,0.00,,---,0.00,VWS V14.01,2013-10-17 19:22:00,
2013-10-17 14:25:00,71.4,48.4,30.02,SW,223,4.0,7.0,44,0.00,,---,0.00,VWS V14.01,2013-10-17 19:25:00,
2013-10-17 14:28:00,71.6,49.2,30.01,SE,138,1.0,7.0,45,0.00,,---,0.00,VWS V14.01,2013-10-17 19:28:00,
2013-10-17 14:31:00,71.6,47.9,30.01,East,98,1.0,7.0,43,0.00,,---,0.00,VWS V14.01,2013-10-17 19:31:00,
2013-10-17 14:37:00,71.5,49.1,30.01,ESE,105,0.0,7.0,45,0.00,,---,0.00,VWS V14.01,2013-10-17 19:37:00,
2013-10-17 14:40:00,71.7,47.4,30.01,SSE,165,4.0,7.0,42,0.00,,---,0.00,VWS V14.01,2013-10-17 19:40:00,
2013-10-17 14:42:00,72.9,47.2,29.98,South,175,0.0,8.0,40,0.00,,---,0.00,VWS V14.01,2013-10-17 19:42:00,
2013-10-17 14:45:00,73.1,46.7,29.98,SSE,167,5.0,8.0,39,0.00,,---,0.00,VWS V14.01,2013-10-17 19:45:00,
2013-10-17 14:46:00,72.0,47.7,30.00,SSE,158,3.0,7.0,42,0.00,,---,0.00,VWS V14.01,2013-10-17 19:46:00,
2013-10-17 14:52:00,72.6,48.2,30.00,South,182,0.0,7.0,42,0.00,,---,0.00,VWS V14.01,2013-10-17 19:52:00,
2013-10-17 14:55:00,72.7,47.7,30.00,SSW,213,0.0,7.0,41,0.00,,---,0.00,VWS V14.01,2013-10-17 19:55:00,
2013-10-17 14:58:00,72.8,48.4,30.00,SSW,195,1.0,7.0,42,0.00,,---,0.00,VWS V14.01,2013-10-17 19:58:00,
2013-10-17 14:59:00,72.8,48.4,30.00,SSW,192,1.0,1.0,42,0.00,,---,0.00,VWS V14.01,2013-10-17 19:59:00,
2013-10-17 15:02:00,72.9,47.8,30.00,SSW,194,3.0,7.0,41,0.00,,---,0.00,VWS V14.01,2013-10-17 20:02:00,
2013-10-17 15:05:00,72.9,46.5,30.00,South,170,3.0,9.0,39,0.00,,---,0.00,VWS V14.01,2013-10-17 20:05:00,
2013-10-17 15:09:00,73.1,47.4,29.97,SE,131,3.0,10.0,40,0.00,,---,0.00,VWS V14.01,2013-10-17 20:09:00,
2013-10-17 15:11:00,73.0,47.9,29.99,SSW,196,0.0,9.0,41,0.00,,---,0.00,VWS V14.01,2013-10-17 20:11:00,
2013-10-17 15:14:00,73.0,48.6,29.99,SSW,212,3.0,9.0,42,0.00,,---,0.00,VWS V14.01,2013-10-17 20:14:00,
2013-10-17 15:15:00,73.3,46.9,29.97,SE,146,4.0,10.0,39,0.00,,---,0.00,VWS V14.01,2013-10-17 20:15:00,
2013-10-17 15:17:00,73.0,48.6,29.99,SE,137,4.0,9.0,42,0.00,,---,0.00,VWS V14.01,2013-10-17 20:17:00,
2013-10-17 15:18:00,73.2,46.1,29.97,SSE,152,6.0,10.0,38,0.00,,---,0.00,VWS V14.01,2013-10-17 20:18:00,
2013-10-17 15:20:00,72.9,47.8,29.99,SSE,157,7.0,9.0,41,0.00,,---,0.00,VWS V14.01,2013-10-17 20:20:00,
2013-10-17 15:23:00,72.6,46.9,29.99,SSW,206,0.0,9.0,40,0.00,,---,0.00,VWS V14.01,2013-10-17 20:23:00,
2013-10-17 15:26:00,72.8,48.4,29.99,South,190,4.0,9.0,42,0.00,,---,0.00,VWS V14.01,2013-10-17 20:26:00,
2013-10-17 15:29:00,73.0,47.9,29.99,SSE,150,6.0,6.0,41,0.00,,---,0.00,VWS V14.01,2013-10-17 20:29:00,
2013-10-17 15:33:00,73.3,47.5,29.97,SSW,194,7.0,8.0,40,0.00,,---,0.00,VWS V14.01,2013-10-17 20:33:00,
2013-10-17 15:35:00,72.9,46.5,29.99,SSE,148,2.0,8.0,39,0.00,,---,0.00,VWS V14.01,2013-10-17 20:35:00,
2013-10-17 15:38:00,72.9,47.2,29.99,SSE,156,0.0,8.0,40,0.00,,---,0.00,VWS V14.01,2013-10-17 20:38:00,
2013-10-17 15:47:00,73.0,46.6,29.98,SE,142,1.0,9.0,39,0.00,,---,0.00,VWS V14.01,2013-10-17 20:47:00,
2013-10-17 15:50:00,73.0,47.3,29.98,SSW,210,4.0,9.0,40,0.00,,---,0.00,VWS V14.01,2013-10-17 20:50:00,
2013-10-17 15:53:00,73.1,46.7,29.98,South,185,1.0,9.0,39,0.00,,---,0.00,VWS V14.01,2013-10-17 20:53:00,
2013-10-17 15:56:00,73.1,46.0,29.98,South,173,2.0,9.0,38,0.00,,---,0.00,VWS V14.01,2013-10-17 20:56:00,
2013-10-17 16:00:00,73.1,46.0,29.96,South,178,1.0,10.0,38,0.00,,---,0.00,VWS V14.01,2013-10-17 21:00:00,
2013-10-17 16:02:00,73.0,47.3,29.98,SE,146,4.0,10.0,40,0.00,,---,0.00,VWS V14.01,2013-10-17 21:02:00,
2013-10-17 16:10:00,73.0,46.6,29.96,South,190,1.0,7.0,39,0.00,,---,0.00,VWS V14.01,2013-10-17 21:10:00,
2013-10-17 16:11:00,73.3,46.2,29.97,South,190,2.0,10.0,38,0.00,,---,0.00,VWS V14.01,2013-10-17 21:11:00,
2013-10-17 16:16:00,73.0,46.6,29.95,SE,138,0.0,7.0,39,0.00,,---,0.00,VWS V14.01,2013-10-17 21:16:00,
2013-10-17 16:20:00,73.1,46.0,29.97,SSE,168,4.0,10.0,38,0.00,,---,0.00,VWS V14.01,2013-10-17 21:20:00,
2013-10-17 16:22:00,72.7,47.0,29.95,SE,140,5.0,7.0,40,0.00,,---,0.00,VWS V14.01,2013-10-17 21:22:00,
2013-10-17 16:23:00,73.2,46.8,29.97,SSW,192,5.0,10.0,39,0.00,,---,0.00,VWS V14.01,2013-10-17 21:23:00,
2013-10-17 16:26:00,73.2,47.5,29.97,SSW,206,2.0,10.0,40,0.00,,---,0.00,VWS V14.01,2013-10-17 21:26:00,
2013-10-17 16:28:00,73.2,46.8,29.97,SSW,205,2.0,10.0,39,0.00,,---,0.00,VWS V14.01,2013-10-17 21:28:00,
2013-10-17 16:35:00,73.3,46.2,29.97,South,173,0.0,8.0,38,0.00,,---,0.00,VWS V14.01,2013-10-17 21:35:00,
2013-10-17 16:38:00,73.3,46.2,29.96,SE,134,0.0,8.0,38,0.00,,---,0.00,VWS V14.01,2013-10-17 21:38:00,
2013-10-17 16:41:00,73.1,46.7,29.96,SSE,148,3.0,8.0,39,0.00,,---,0.00,VWS V14.01,2013-10-17 21:41:00,
2013-10-17 16:44:00,73.0,45.9,29.96,SSW,199,3.0,8.0,38,0.00,,---,0.00,VWS V14.01,2013-10-17 21:44:00,
2013-10-17 16:49:00,71.7,46.1,29.95,South,170,4.0,7.0,40,0.00,,---,0.00,VWS V14.01,2013-10-17 21:49:00,
2013-10-17 16:50:00,73.1,47.4,29.96,SSE,153,1.0,8.0,40,0.00,,---,0.00,VWS V14.01,2013-10-17 21:50:00,
2013-10-17 16:52:00,71.6,46.0,29.95,SSE,167,2.0,9.0,40,0.00,,---,0.00,VWS V14.01,2013-10-17 21:52:00,
2013-10-17 16:53:00,73.2,46.1,29.96,South,169,1.0,10.0,38,0.00,,---,0.00,VWS V14.01,2013-10-17 21:53:00,
2013-10-17 16:56:00,73.1,46.0,29.96,SSE,151,1.0,10.0,38,0.00,,---,0.00,VWS V14.01,2013-10-17 21:56:00,
2013-10-17 16:58:00,71.4,45.8,29.95,SSE,153,1.0,9.0,40,0.00,,---,0.00,VWS V14.01,2013-10-17 21:58:00,
2013-10-17 16:59:00,73.0,45.9,29.96,South,171,0.0,2.0,38,0.00,,---,0.00,VWS V14.01,2013-10-17 21:59:00,
2013-10-17 17:02:00,73.0,45.9,29.96,South,185,1.0,5.0,38,0.00,,---,0.00,VWS V14.01,2013-10-17 22:02:00,
2013-10-17 17:04:00,71.1,46.2,29.95,SE,142,2.0,5.0,41,0.00,,---,0.00,VWS V14.01,2013-10-17 22:04:00,
2013-10-17 17:06:00,73.0,46.6,29.95,SSW,209,6.0,7.0,39,0.00,,---,0.00,VWS V14.01,2013-10-17 22:06:00,
2013-10-17 17:12:00,73.0,46.6,29.95,SSW,196,1.0,7.0,39,0.00,,---,0.00,VWS V14.01,2013-10-17 22:12:00,
2013-10-17 17:18:00,72.9,46.5,29.95,SE,135,4.0,7.0,39,0.00,,---,0.00,VWS V14.01,2013-10-17 22:18:00,
2013-10-17 17:24:00,72.5,46.8,29.95,SE,138,5.0,7.0,40,0.00,,---,0.00,VWS V14.01,2013-10-17 22:24:00,
2013-10-17 17:27:00,72.4,46.1,29.95,SSW,196,2.0,7.0,39,0.00,,---,0.00,VWS V14.01,2013-10-17 22:27:00,
2013-10-17 17:28:00,72.4,46.7,29.95,SE,142,1.0,7.0,40,0.00,,---,0.00,VWS V14.01,2013-10-17 22:28:00,
2013-10-17 17:30:00,72.4,47.4,29.95,SSE,152,2.0,3.0,41,0.00,,---,0.00,VWS V14.01,2013-10-17 22:30:00,
2013-10-17 17:31:00,69.3,47.1,29.95,South,183,0.0,5.0,45,0.00,,---,0.00,VWS V14.01,2013-10-17 22:31:00,
2013-10-17 17:36:00,72.1,47.1,29.95,South,174,0.0,7.0,41,0.00,,---,0.00,VWS V14.01,2013-10-17 22:36:00,
2013-10-17 17:42:00,72.0,46.4,29.95,SE,140,1.0,7.0,40,0.00,,---,0.00,VWS V14.01,2013-10-17 22:42:00,
2013-10-17 17:45:00,71.9,47.0,29.95,SSE,153,5.0,7.0,41,0.00,,---,0.00,VWS V14.01,2013-10-17 22:45:00,
2013-10-17 17:54:00,71.5,45.9,29.95,SSE,164,4.0,9.0,40,0.00,,---,0.00,VWS V14.01,2013-10-17 22:54:00,
2013-10-17 17:58:00,71.3,45.8,29.95,SSE,160,0.0,9.0,40,0.00,,---,0.00,VWS V14.01,2013-10-17 22:58:00,
2013-10-17 18:06:00,70.9,47.3,29.95,SE,140,0.0,5.0,43,0.00,,---,0.00,VWS V14.01,2013-10-17 23:06:00,
2013-10-17 18:09:00,70.8,47.2,29.95,South,170,0.0,5.0,43,0.00,,---,0.00,VWS V14.01,2013-10-17 23:09:00,
2013-10-17 18:12:00,70.8,47.2,29.95,South,187,3.0,5.0,43,0.00,,---,0.00,VWS V14.01,2013-10-17 23:12:00,
2013-10-17 18:15:00,70.5,46.3,29.94,South,188,3.0,8.0,42,0.00,,---,0.00,VWS V14.01,2013-10-17 23:15:00,
2013-10-17 18:18:00,70.2,45.4,29.95,SSE,153,2.0,8.0,41,0.00,,---,0.00,VWS V14.01,2013-10-17 23:18:00,
2013-10-17 18:21:00,70.0,46.5,29.95,SSE,161,2.0,8.0,43,0.00,,---,0.00,VWS V14.01,2013-10-17 23:21:00,
2013-10-17 18:24:00,69.7,46.8,29.94,SSE,150,3.0,8.0,44,0.00,,---,0.00,VWS V14.01,2013-10-17 23:24:00,
2013-10-17 18:28:00,69.4,46.6,29.94,South,187,5.0,9.0,44,0.00,,---,0.00,VWS V14.01,2013-10-17 23:28:00,
2013-10-17 18:33:00,69.0,47.4,29.95,South,175,0.0,5.0,46,0.00,,---,0.00,VWS V14.01,2013-10-17 23:33:00,
2013-10-17 18:36:00,68.6,47.6,29.95,South,173,0.0,5.0,47,0.00,,---,0.00,VWS V14.01,2013-10-17 23:36:00,
2013-10-17 18:42:00,67.8,47.4,29.95,South,170,0.0,5.0,48,0.00,,---,0.00,VWS V14.01,2013-10-17 23:42:00,
2013-10-17 18:45:00,67.4,47.6,29.95,South,170,0.0,5.0,49,0.00,,---,0.00,VWS V14.01,2013-10-17 23:45:00,
2013-10-17 18:48:00,66.9,47.7,29.95,South,170,0.0,5.0,50,0.00,,---,0.00,VWS V14.01,2013-10-17 23:48:00,
2013-10-17 18:51:00,66.5,47.8,29.95,South,170,0.0,5.0,51,0.00,,---,0.00,VWS V14.01,2013-10-17 23:51:00,
2013-10-17 18:54:00,65.9,47.3,29.95,South,170,0.0,5.0,51,0.00,,---,0.00,VWS V14.01,2013-10-17 23:54:00,
2013-10-17 18:57:00,65.5,47.4,29.95,South,170,0.0,5.0,52,0.00,,---,0.00,VWS V14.01,2013-10-17 23:57:00,
2013-10-17 18:58:00,65.4,47.3,29.94,South,170,0.0,5.0,52,0.00,,---,0.00,VWS V14.01,2013-10-17 23:58:00,
2013-10-17 19:00:00,65.1,47.1,29.94,South,170,0.0,0.0,52,0.00,,---,0.00,VWS V14.01,2013-10-18 00:00:00,
2013-10-17 19:03:00,64.8,46.8,29.95,South,170,0.0,1.0,52,0.00,,---,0.00,VWS V14.01,2013-10-18 00:03:00,
2013-10-17 19:06:00,64.6,47.1,29.94,South,170,0.0,1.0,53,0.00,,---,0.00,VWS V14.01,2013-10-18 00:06:00,
2013-10-17 19:10:00,64.3,47.3,29.94,South,170,0.0,1.0,54,0.00,,---,0.00,VWS V14.01,2013-10-18 00:10:00,
2013-10-17 19:13:00,63.9,47.4,29.94,South,170,0.0,1.0,55,0.00,,---,0.00,VWS V14.01,2013-10-18 00:13:00,
2013-10-17 19:16:00,63.4,47.0,29.94,SSE,166,0.0,1.0,55,0.00,,---,0.00,VWS V14.01,2013-10-18 00:16:00,
2013-10-17 19:19:00,62.9,47.0,29.94,SSE,165,0.0,2.0,56,0.00,,---,0.00,VWS V14.01,2013-10-18 00:19:00,
2013-10-17 19:22:00,62.5,47.1,29.94,SSE,165,0.0,2.0,57,0.00,,---,0.00,VWS V14.01,2013-10-18 00:22:00,
2013-10-17 19:25:00,62.2,47.3,29.94,SSE,165,0.0,2.0,58,0.00,,---,0.00,VWS V14.01,2013-10-18 00:25:00,
2013-10-17 19:28:00,61.9,47.4,29.94,SSE,165,0.0,2.0,59,0.00,,---,0.00,VWS V14.01,2013-10-18 00:28:00,
2013-10-17 19:31:00,61.6,47.6,29.94,SSE,165,0.0,0.0,60,0.00,,---,0.00,VWS V14.01,2013-10-18 00:31:00,
2013-10-17 19:34:00,61.3,47.8,29.94,SSE,165,0.0,0.0,61,0.00,,---,0.00,VWS V14.01,2013-10-18 00:34:00,
2013-10-17 19:37:00,61.0,47.9,29.94,SSE,165,0.0,0.0,62,0.00,,---,0.00,VWS V14.01,2013-10-18 00:37:00,
2013-10-17 19:40:00,60.7,48.0,29.94,SSE,165,0.0,0.0,63,0.00,,---,0.00,VWS V14.01,2013-10-18 00:40:00,
2013-10-17 19:43:00,60.5,47.9,29.94,SSE,158,0.0,2.0,63,0.00,,---,0.00,VWS V14.01,2013-10-18 00:43:00,
2013-10-17 19:46:00,60.3,48.1,29.94,SSE,158,0.0,2.0,64,0.00,,---,0.00,VWS V14.01,2013-10-18 00:46:00,
2013-10-17 19:49:00,60.1,47.9,29.94,SSE,154,1.0,2.0,64,0.00,,---,0.00,VWS V14.01,2013-10-18 00:49:00,
2013-10-17 19:52:00,60.0,47.8,29.94,SSE,153,1.0,2.0,64,0.00,,---,0.00,VWS V14.01,2013-10-18 00:52:00,
2013-10-17 19:55:00,59.9,48.1,29.94,SSE,153,1.0,2.0,65,0.00,,---,0.00,VWS V14.01,2013-10-18 00:55:00,
2013-10-17 19:58:00,59.8,48.0,29.94,SSE,153,0.0,2.0,65,0.00,,---,0.00,VWS V14.01,2013-10-18 00:58:00,
2013-10-17 20:01:00,59.6,48.2,29.94,SSE,150,1.0,2.0,66,0.00,,---,0.00,VWS V14.01,2013-10-18 01:01:00,
2013-10-17 20:04:00,59.5,48.2,29.94,SE,126,0.0,3.0,66,0.00,,---,0.00,VWS V14.01,2013-10-18 01:04:00,
2013-10-17 20:10:00,59.3,48.0,29.94,SE,126,0.0,3.0,66,0.00,,---,0.00,VWS V14.01,2013-10-18 01:10:00,
2013-10-17 20:13:00,59.1,48.2,29.94,SE,126,0.0,3.0,67,0.00,,---,0.00,VWS V14.01,2013-10-18 01:13:00,
2013-10-17 20:16:00,58.9,48.4,29.94,SE,126,0.0,3.0,68,0.00,,---,0.00,VWS V14.01,2013-10-18 01:16:00,
2013-10-17 20:19:00,58.6,48.5,29.94,SE,126,0.0,3.0,69,0.00,,---,0.00,VWS V14.01,2013-10-18 01:19:00,
2013-10-17 20:22:00,58.4,48.3,29.94,SE,126,0.0,3.0,69,0.00,,---,0.00,VWS V14.01,2013-10-18 01:22:00,
2013-10-17 20:28:00,57.9,48.6,29.94,SE,125,2.0,4.0,71,0.00,,---,0.00,VWS V14.01,2013-10-18 01:28:00,
2013-10-17 20:31:00,57.9,48.6,29.94,SE,125,1.0,3.0,71,0.00,,---,0.00,VWS V14.01,2013-10-18 01:31:00,
2013-10-17 20:34:00,57.9,48.6,29.94,SE,125,1.0,3.0,71,0.00,,---,0.00,VWS V14.01,2013-10-18 01:34:00,
2013-10-17 20:40:00,57.6,48.7,29.95,SE,125,0.0,3.0,72,0.00,,---,0.00,VWS V14.01,2013-10-18 01:40:00,
2013-10-17 20:43:00,57.1,48.2,29.95,SE,125,2.0,3.0,72,0.00,,---,0.00,VWS V14.01,2013-10-18 01:43:00,
2013-10-17 20:46:00,56.5,47.6,29.95,SE,125,0.0,3.0,72,0.00,,---,0.00,VWS V14.01,2013-10-18 01:46:00,
2013-10-17 20:49:00,56.0,47.5,29.95,SE,125,1.0,3.0,73,0.00,,---,0.00,VWS V14.01,2013-10-18 01:49:00,
2013-10-17 20:52:00,55.7,47.9,29.95,SE,125,1.0,3.0,75,0.00,,---,0.00,VWS V14.01,2013-10-18 01:52:00,
2013-10-17 20:55:00,55.4,47.6,29.95,SE,125,0.0,3.0,75,0.00,,---,0.00,VWS V14.01,2013-10-18 01:55:00,
2013-10-17 20:58:00,55.1,48.0,29.95,SE,125,0.0,3.0,77,0.00,,---,0.00,VWS V14.01,2013-10-18 01:58:00,
2013-10-17 21:01:00,55.0,47.9,29.95,SE,125,0.0,0.0,77,0.00,,---,0.00,VWS V14.01,2013-10-18 02:01:00,
2013-10-17 21:04:00,54.9,48.2,29.96,SE,125,0.0,0.0,78,0.00,,---,0.00,VWS V14.01,2013-10-18 02:04:00,
2013-10-17 21:07:00,54.7,48.3,29.96,SE,125,0.0,1.0,79,0.00,,---,0.00,VWS V14.01,2013-10-18 02:07:00,
2013-10-17 21:10:00,54.6,48.2,29.96,SE,125,0.0,1.0,79,0.00,,---,0.00,VWS V14.01,2013-10-18 02:10:00,
2013-10-17 21:17:00,54.4,48.4,29.96,SE,125,0.0,1.0,80,0.00,,---,0.00,VWS V14.01,2013-10-18 02:17:00,
2013-10-17 21:20:00,54.2,48.2,29.96,SE,125,0.0,1.0,80,0.00,,---,0.00,VWS V14.01,2013-10-18 02:20:00,
2013-10-17 21:26:00,54.1,49.1,29.96,SE,125,0.0,1.0,83,0.00,,---,0.00,VWS V14.01,2013-10-18 02:26:00,
2013-10-17 21:28:00,54.1,49.1,29.96,SE,125,0.0,1.0,83,0.00,,---,0.00,VWS V14.01,2013-10-18 02:28:00,
2013-10-17 21:32:00,53.9,48.5,29.96,SE,125,0.0,1.0,82,0.00,,---,0.00,VWS V14.01,2013-10-18 02:32:00,
2013-10-17 21:35:00,53.7,48.0,29.96,SE,125,0.0,1.0,81,0.00,,---,0.00,VWS V14.01,2013-10-18 02:35:00,
2013-10-17 21:38:00,53.6,47.9,29.96,SE,125,0.0,1.0,81,0.00,,---,0.00,VWS V14.01,2013-10-18 02:38:00,
2013-10-17 21:41:00,53.5,47.8,29.96,SE,125,1.0,1.0,81,0.00,,---,0.00,VWS V14.01,2013-10-18 02:41:00,
2013-10-17 21:44:00,53.4,47.7,29.96,SE,125,0.0,2.0,81,0.00,,---,0.00,VWS V14.01,2013-10-18 02:44:00,
2013-10-17 21:47:00,53.2,47.5,29.96,SE,125,0.0,2.0,81,0.00,,---,0.00,VWS V14.01,2013-10-18 02:47:00,
2013-10-17 21:50:00,52.9,47.2,29.96,SE,125,0.0,2.0,81,0.00,,---,0.00,VWS V14.01,2013-10-18 02:50:00,
2013-10-17 21:53:00,52.7,47.7,29.96,SE,125,1.0,2.0,83,0.00,,---,0.00,VWS V14.01,2013-10-18 02:53:00,
2013-10-17 21:56:00,52.6,47.9,29.96,SE,125,1.0,2.0,84,0.00,,---,0.00,VWS V14.01,2013-10-18 02:56:00,
2013-10-17 21:58:00,52.5,47.5,29.96,SE,125,1.0,2.0,83,0.00,,---,0.00,VWS V14.01,2013-10-18 02:58:00,
2013-10-17 21:59:00,52.4,47.7,29.96,SE,125,1.0,2.0,84,0.00,,---,0.00,VWS V14.01,2013-10-18 02:59:00,
2013-10-17 22:02:00,52.4,47.7,29.96,SE,125,1.0,2.0,84,0.00,,---,0.00,VWS V14.01,2013-10-18 03:02:00,
2013-10-17 22:04:00,53.0,48.0,29.97,SE,125,0.0,0.0,83,0.00,,---,0.00,VWS V14.01,2013-10-18 03:04:00,
2013-10-17 22:05:00,52.5,47.8,29.96,SE,125,1.0,2.0,84,0.00,,---,0.00,VWS V14.01,2013-10-18 03:05:00,
2013-10-17 22:07:00,52.7,47.7,29.97,SE,125,0.0,0.0,83,0.00,,---,0.00,VWS V14.01,2013-10-18 03:07:00,
2013-10-17 22:08:00,52.6,47.6,29.96,SE,125,1.0,2.0,83,0.00,,---,0.00,VWS V14.01,2013-10-18 03:08:00,
2013-10-17 22:10:00,52.5,47.5,29.97,SE,125,0.0,0.0,83,0.00,,---,0.00,VWS V14.01,2013-10-18 03:10:00,
2013-10-17 22:11:00,52.8,47.8,29.96,SE,125,0.0,2.0,83,0.00,,---,0.00,VWS V14.01,2013-10-18 03:11:00,
2013-10-17 22:13:00,52.3,47.6,29.97,SE,125,0.0,0.0,84,0.00,,---,0.00,VWS V14.01,2013-10-18 03:13:00,
2013-10-17 22:14:00,52.9,47.9,29.96,SE,125,0.0,2.0,83,0.00,,---,0.00,VWS V14.01,2013-10-18 03:14:00,
2013-10-17 22:16:00,52.0,47.6,29.97,SE,125,0.0,0.0,85,0.00,,---,0.00,VWS V14.01,2013-10-18 03:16:00,
2013-10-17 22:19:00,51.9,47.2,29.97,SE,125,0.0,0.0,84,0.00,,---,0.00,VWS V14.01,2013-10-18 03:19:00,
2013-10-17 22:20:00,52.5,47.5,29.96,SE,125,0.0,2.0,83,0.00,,---,0.00,VWS V14.01,2013-10-18 03:20:00,
2013-10-17 22:22:00,52.0,47.3,29.97,SE,125,0.0,0.0,84,0.00,,---,0.00,VWS V14.01,2013-10-18 03:22:00,
2013-10-17 22:23:00,52.3,47.6,29.96,SE,125,1.0,2.0,84,0.00,,---,0.00,VWS V14.01,2013-10-18 03:23:00,
2013-10-17 22:25:00,52.0,47.6,29.97,SE,125,0.0,0.0,85,0.00,,---,0.00,VWS V14.01,2013-10-18 03:25:00,
2013-10-17 22:26:00,52.4,47.7,29.96,SE,125,0.0,2.0,84,0.00,,---,0.00,VWS V14.01,2013-10-18 03:26:00,
2013-10-17 22:28:00,52.4,47.7,29.97,SE,125,0.0,2.0,84,0.00,,---,0.00,VWS V14.01,2013-10-18 03:28:00,
2013-10-17 22:29:00,52.4,47.7,29.96,SE,125,0.0,0.0,84,0.00,,---,0.00,VWS V14.01,2013-10-18 03:29:00,
2013-10-17 22:30:00,51.7,47.3,29.97,SE,125,0.0,0.0,85,0.00,,---,0.00,VWS V14.01,2013-10-18 03:30:00,
2013-10-17 22:31:00,51.5,47.2,29.97,SE,125,0.0,0.0,85,0.00,,---,0.00,VWS V14.01,2013-10-18 03:31:00,
2013-10-17 22:32:00,52.4,47.7,29.97,SE,125,0.0,0.0,84,0.00,,---,0.00,VWS V14.01,2013-10-18 03:32:00,
2013-10-17 22:34:00,51.3,47.0,29.97,SE,125,0.0,0.0,85,0.00,,---,0.00,VWS V14.01,2013-10-18 03:34:00,
2013-10-17 22:35:00,52.3,47.6,29.97,SE,125,0.0,1.0,84,0.00,,---,0.00,VWS V14.01,2013-10-18 03:35:00,
2013-10-17 22:37:00,51.1,46.8,29.97,SE,125,0.0,0.0,85,0.00,,---,0.00,VWS V14.01,2013-10-18 03:37:00,
2013-10-17 22:38:00,52.4,47.4,29.96,SE,125,2.0,2.0,83,0.00,,---,0.00,VWS V14.01,2013-10-18 03:38:00,
2013-10-17 22:40:00,51.0,46.7,29.97,SE,125,0.0,0.0,85,0.00,,---,0.00,VWS V14.01,2013-10-18 03:40:00,
2013-10-17 22:41:00,52.6,47.6,29.97,SE,125,2.0,2.0,83,0.00,,---,0.00,VWS V14.01,2013-10-18 03:41:00,
2013-10-17 22:43:00,50.9,46.6,29.97,SE,125,0.0,0.0,85,0.00,,---,0.00,VWS V14.01,2013-10-18 03:43:00,
2013-10-17 22:44:00,52.9,47.6,29.96,SE,125,1.0,2.0,82,0.00,,---,0.00,VWS V14.01,2013-10-18 03:44:00,
2013-10-17 22:46:00,50.7,46.4,29.96,SE,125,0.0,0.0,85,0.00,,---,0.00,VWS V14.01,2013-10-18 03:46:00,
2013-10-17 22:49:00,50.6,46.3,29.97,SE,125,0.0,0.0,85,0.00,,---,0.00,VWS V14.01,2013-10-18 03:49:00,
2013-10-17 22:50:00,53.4,48.0,29.97,SE,125,0.0,2.0,82,0.00,,---,0.00,VWS V14.01,2013-10-18 03:50:00,
2013-10-17 22:52:00,50.6,46.6,29.97,SE,125,1.0,1.0,86,0.00,,---,0.00,VWS V14.01,2013-10-18 03:52:00,
2013-10-17 22:53:00,53.5,47.8,29.97,SE,125,1.0,2.0,81,0.00,,---,0.00,VWS V14.01,2013-10-18 03:53:00,
2013-10-17 22:55:00,50.7,47.0,29.96,SE,125,2.0,2.0,87,0.00,,---,0.00,VWS V14.01,2013-10-18 03:55:00,
2013-10-17 22:57:00,53.3,48.0,29.97,SE,125,1.0,2.0,82,0.00,,---,0.00,VWS V14.01,2013-10-18 03:57:00,
2013-10-17 22:58:00,53.2,47.9,29.97,SE,125,0.0,2.0,82,0.00,,---,0.00,VWS V14.01,2013-10-18 03:58:00,
2013-10-17 23:00:00,51.3,47.6,29.96,ESE,121,2.0,4.0,87,0.00,,---,0.00,VWS V14.01,2013-10-18 04:00:00,
2013-10-17 23:01:00,51.5,47.5,29.96,ESE,121,1.0,2.0,86,0.00,,---,0.00,VWS V14.01,2013-10-18 04:01:00,
2013-10-17 23:04:00,51.9,47.5,29.96,ESE,121,1.0,2.0,85,0.00,,---,0.00,VWS V14.01,2013-10-18 04:04:00,
2013-10-17 23:07:00,52.1,47.4,29.96,ESE,121,0.0,2.0,84,0.00,,---,0.00,VWS V14.01,2013-10-18 04:07:00,
2013-10-17 23:10:00,52.3,47.6,29.96,ESE,121,0.0,2.0,84,0.00,,---,0.00,VWS V14.01,2013-10-18 04:10:00,
2013-10-17 23:13:00,52.4,47.7,29.96,ESE,121,0.0,2.0,84,0.00,,---,0.00,VWS V14.01,2013-10-18 04:13:00,
2013-10-17 23:16:00,52.6,47.6,29.96,ESE,121,0.0,2.0,83,0.00,,---,0.00,VWS V14.01,2013-10-18 04:16:00,
2013-10-17 23:19:00,52.6,47.6,29.96,ESE,121,0.0,2.0,83,0.00,,---,0.00,VWS V14.01,2013-10-18 04:19:00,
2013-10-17 23:22:00,52.5,47.5,29.96,ESE,121,0.0,2.0,83,0.00,,---,0.00,VWS V14.01,2013-10-18 04:22:00,
2013-10-17 23:25:00,52.4,47.1,29.96,ESE,121,0.0,2.0,82,0.00,,---,0.00,VWS V14.01,2013-10-18 04:25:00,
2013-10-17 23:28:00,52.3,47.0,29.96,ESE,121,0.0,2.0,82,0.00,,---,0.00,VWS V14.01,2013-10-18 04:28:00,
2013-10-17 23:30:00,52.3,47.0,29.96,ESE,121,0.0,2.0,82,0.00,,---,0.00,VWS V14.01,2013-10-18 04:30:00,
2013-10-17 23:31:00,52.3,47.0,29.96,ESE,121,0.0,0.0,82,0.00,,---,0.00,VWS V14.01,2013-10-18 04:31:00,
2013-10-17 23:34:00,52.2,46.9,29.96,ESE,121,0.0,0.0,82,0.00,,---,0.00,VWS V14.01,2013-10-18 04:34:00,
2013-10-17 23:38:00,52.2,47.2,29.96,ESE,121,0.0,0.0,83,0.00,,---,0.00,VWS V14.01,2013-10-18 04:38:00,
2013-10-17 23:41:00,52.2,47.5,29.96,ESE,121,0.0,0.0,84,0.00,,---,0.00,VWS V14.01,2013-10-18 04:41:00,
2013-10-17 23:44:00,52.2,47.8,29.96,ESE,121,0.0,0.0,85,0.00,,---,0.00,VWS V14.01,2013-10-18 04:44:00,
2013-10-17 23:47:00,52.3,48.2,29.95,ESE,121,0.0,0.0,86,0.00,,---,0.00,VWS V14.01,2013-10-18 04:47:00,
2013-10-17 23:50:00,52.3,48.2,29.95,ESE,121,0.0,0.0,86,0.00,,---,0.00,VWS V14.01,2013-10-18 04:50:00,
2013-10-17 23:53:00,52.3,47.9,29.95,ESE,121,0.0,0.0,85,0.00,,---,0.00,VWS V14.01,2013-10-18 04:53:00,
2013-10-17 23:56:00,52.4,47.7,29.95,ESE,121,0.0,0.0,84,0.00,,---,0.00,VWS V14.01,2013-10-18 04:56:00,
2013-10-17 23:59:00,52.6,48.2,29.95,ESE,121,1.0,1.0,85,0.00,,---,0.00,VWS V14.01,2013-10-18 04:59:00,